Time;durP1;ratioP1;P1;durP2;ratioP2;P2;SDS_P1;SDS_P2;PMS_P1;PMS_P2;Temp;Humidity;BMP_temperature;BMP_pressure;BME280_temperature;BME280_humidity;BME280_pressure;Samples;Min_cycle;Max_cycle;Signal;HPM_P1;HPM_P2
2022/03/20 00:02:24;;;;;;;9.20;3.35;;;;;;;;;;5043248;28;20048;-68
2022/03/20 00:04:50;;;;;;;5.95;3.03;;;;;;;;;;5037529;28;20108;-68
2022/03/20 00:07:15;;;;;;;5.03;2.92;;;;;;;;;;5041339;28;20024;-69
2022/03/20 00:09:41;;;;;;;4.40;3.22;;;;;;;;;;5041044;28;20033;-68
2022/03/20 00:12:07;;;;;;;3.80;3.40;;;;;;;;;;5025559;28;20025;-68
2022/03/20 00:14:32;;;;;;;6.53;3.85;;;;;;;;;;5043003;28;20070;-68
2022/03/20 00:16:57;;;;;;;6.28;3.78;;;;;;;;;;5043465;28;20013;-68
2022/03/20 00:19:23;;;;;;;6.47;4.32;;;;;;;;;;5039116;28;20021;-68
2022/03/20 00:21:49;;;;;;;5.82;4.40;;;;;;;;;;5043716;28;20047;-67
2022/03/20 00:24:15;;;;;;;6.95;4.50;;;;;;;;;;5041008;28;20500;-67
2022/03/20 00:26:42;;;;;;;6.45;4.47;;;;;;;;;;5042647;28;20131;-68
2022/03/20 00:29:07;;;;;;;7.65;4.65;;;;;;;;;;5040172;28;20017;-68
2022/03/20 00:31:33;;;;;;;6.53;5.03;;;;;;;;;;5047657;28;20119;-68
2022/03/20 00:33:59;;;;;;;7.40;4.85;;;;;;;;;;5054568;28;20097;-68
2022/03/20 00:36:24;;;;;;;8.05;5.30;;;;;;;;;;5062953;28;20390;-68
2022/03/20 00:38:50;;;;;;;8.25;5.03;;;;;;;;;;5063274;28;20021;-68
2022/03/20 00:41:16;;;;;;;6.68;5.38;;;;;;;;;;5044889;28;20036;-68
2022/03/20 00:43:41;;;;;;;8.48;5.43;;;;;;;;;;5059922;28;20028;-68
2022/03/20 00:46:07;;;;;;;7.38;5.68;;;;;;;;;;5060516;28;20089;-68
2022/03/20 00:48:33;;;;;;;6.78;5.55;;;;;;;;;;5036286;28;20029;-67
2022/03/20 00:51:03;;;;;;;7.25;6.05;;;;;;;;;;5024138;28;20459;-68
2022/03/20 00:53:28;;;;;;;9.80;6.25;;;;;;;;;;5043069;28;20025;-69
2022/03/20 00:55:54;;;;;;;7.95;6.22;;;;;;;;;;5042696;28;20040;-68
2022/03/20 00:58:20;;;;;;;9.02;6.70;;;;;;;;;;5039060;28;20285;-68
2022/03/20 01:00:45;;;;;;;10.50;6.45;;;;;;;;;;5042008;28;20154;-67
2022/03/20 01:03:11;;;;;;;7.93;6.13;;;;;;;;;;5035052;28;20513;-68
2022/03/20 01:05:36;;;;;;;8.68;6.38;;;;;;;;;;5043985;28;20047;-68
2022/03/20 01:08:01;;;;;;;9.52;6.82;;;;;;;;;;5039734;28;20024;-68
2022/03/20 01:10:27;;;;;;;12.13;6.97;;;;;;;;;;5043453;28;20036;-68
2022/03/20 01:12:52;;;;;;;9.80;7.07;;;;;;;;;;5040405;28;20213;-68
2022/03/20 01:15:18;;;;;;;9.10;6.30;;;;;;;;;;5040586;28;20125;-68
2022/03/20 01:17:44;;;;;;;8.13;6.82;;;;;;;;;;5038976;28;20128;-67
2022/03/20 01:20:10;;;;;;;12.55;7.75;;;;;;;;;;5036422;28;20047;-69
2022/03/20 01:22:35;;;;;;;10.75;7.43;;;;;;;;;;5042385;28;20033;-67
2022/03/20 01:25:00;;;;;;;8.27;7.30;;;;;;;;;;5040272;28;20436;-68
2022/03/20 01:27:26;;;;;;;8.95;7.35;;;;;;;;;;5040450;28;20013;-67
2022/03/20 01:29:51;;;;;;;11.68;7.90;;;;;;;;;;5041257;28;20024;-68
2022/03/20 01:32:17;;;;;;;10.90;8.13;;;;;;;;;;5039903;28;20029;-68
2022/03/20 01:34:43;;;;;;;12.07;7.88;;;;;;;;;;5036352;28;20110;-67
2022/03/20 01:37:08;;;;;;;10.35;7.82;;;;;;;;;;5040437;28;20360;-68
2022/03/20 01:39:34;;;;;;;10.50;8.38;;;;;;;;;;5040371;28;20174;-68
2022/03/20 01:41:59;;;;;;;11.75;8.60;;;;;;;;;;5041239;28;20032;-67
2022/03/20 01:44:34;;;;;;;13.30;8.82;;;;;;;;;;5039956;28;20020;-68
2022/03/20 01:47:00;;;;;;;10.65;8.82;;;;;;;;;;5048392;28;20024;-68
2022/03/20 01:49:26;;;;;;;11.23;8.68;;;;;;;;;;5038291;28;20028;-68
2022/03/20 01:54:35;;;;;;;12.63;9.82;;;;;;;;;;5061449;28;20100;-67
2022/03/20 01:57:00;;;;;;;11.65;9.35;;;;;;;;;;5062044;28;20028;-68
2022/03/20 01:59:25;;;;;;;13.90;9.68;;;;;;;;;;5060762;28;20170;-68
2022/03/20 02:01:51;;;;;;;14.18;9.77;;;;;;;;;;5060541;28;20512;-68
2022/03/20 02:04:16;;;;;;;13.07;9.75;;;;;;;;;;5054728;28;20405;-68
2022/03/20 02:06:44;;;;;;;13.48;10.27;;;;;;;;;;5062303;28;20356;-67
2022/03/20 02:09:10;;;;;;;12.45;9.88;;;;;;;;;;5059593;28;20064;-68
2022/03/20 02:11:36;;;;;;;11.80;9.30;;;;;;;;;;5062566;28;20120;-68
2022/03/20 02:14:01;;;;;;;13.80;10.25;;;;;;;;;;5058139;28;20029;-68
2022/03/20 02:16:27;;;;;;;12.05;9.18;;;;;;;;;;5060527;28;20089;-69
2022/03/20 02:18:54;;;;;;;14.82;10.70;;;;;;;;;;5056218;28;20176;-67
2022/03/20 02:21:55;;;;;;;14.35;10.00;;;;;;;;;;5059411;28;20941;-68
2022/03/20 02:24:27;;;;;;;12.27;9.95;;;;;;;;;;5038508;28;20438;-67
2022/03/20 02:27:01;;;;;;;14.43;10.73;;;;;;;;;;5053952;28;20115;-69
2022/03/20 02:29:27;;;;;;;13.75;10.90;;;;;;;;;;5042275;28;20111;-68
2022/03/20 02:31:52;;;;;;;14.73;10.80;;;;;;;;;;5061189;28;20111;-68
2022/03/20 02:34:18;;;;;;;15.82;10.63;;;;;;;;;;5056511;28;20067;-68
2022/03/20 02:36:43;;;;;;;14.68;10.57;;;;;;;;;;5060549;28;20017;-68
2022/03/20 02:39:08;;;;;;;16.65;11.18;;;;;;;;;;5059253;28;20051;-68
2022/03/20 02:41:34;;;;;;;14.05;10.18;;;;;;;;;;5062180;28;20070;-68
2022/03/20 02:44:02;;;;;;;13.05;10.55;;;;;;;;;;5057458;28;20158;-68
2022/03/20 02:46:27;;;;;;;13.60;10.35;;;;;;;;;;5059206;28;20024;-68
2022/03/20 02:48:53;;;;;;;14.75;10.60;;;;;;;;;;5051940;28;20043;-67
2022/03/20 02:51:19;;;;;;;13.68;10.52;;;;;;;;;;5052845;28;20021;-68
2022/03/20 02:53:44;;;;;;;13.15;10.13;;;;;;;;;;5056735;28;20029;-68
2022/03/20 02:56:10;;;;;;;15.30;10.15;;;;;;;;;;5060181;28;20032;-67
2022/03/20 02:58:36;;;;;;;12.73;9.90;;;;;;;;;;5033527;28;20025;-68
2022/03/20 03:01:01;;;;;;;15.25;10.23;;;;;;;;;;5042418;28;20033;-68
2022/03/20 03:03:27;;;;;;;12.55;10.20;;;;;;;;;;5033557;28;20338;-68
2022/03/20 03:05:56;;;;;;;13.70;10.23;;;;;;;;;;5037314;28;20040;-68
2022/03/20 03:11:05;;;;;;;13.52;9.90;;;;;;;;;;5039932;28;20035;-67
2022/03/20 03:13:40;;;;;;;12.65;9.88;;;;;;;;;;5037160;28;20017;-66
2022/03/20 03:16:07;;;;;;;12.85;9.60;;;;;;;;;;5039318;28;20025;-67
2022/03/20 03:18:34;;;;;;;13.90;9.98;;;;;;;;;;5035764;28;20505;-67
2022/03/20 03:21:00;;;;;;;15.93;10.73;;;;;;;;;;5038947;28;20044;-68
2022/03/20 03:23:25;;;;;;;12.73;10.05;;;;;;;;;;5039941;28;20360;-69
2022/03/20 03:25:51;;;;;;;12.43;9.73;;;;;;;;;;5044008;28;20522;-67
2022/03/20 03:28:16;;;;;;;13.35;9.98;;;;;;;;;;5039695;28;20571;-68
2022/03/20 03:30:43;;;;;;;12.95;10.05;;;;;;;;;;5044311;28;20032;-68
2022/03/20 03:33:09;;;;;;;17.70;10.00;;;;;;;;;;5042270;28;20013;-70
2022/03/20 03:35:47;;;;;;;13.38;9.73;;;;;;;;;;5037332;28;20036;-68
2022/03/20 03:38:14;;;;;;;12.43;9.07;;;;;;;;;;5040904;28;20025;-68
2022/03/20 03:40:40;;;;;;;12.50;9.65;;;;;;;;;;5043382;28;20052;-67
2022/03/20 03:43:06;;;;;;;13.75;9.27;;;;;;;;;;5042170;28;20063;-70
2022/03/20 03:45:32;;;;;;;14.73;9.45;;;;;;;;;;5027353;28;20190;-67
2022/03/20 03:47:57;;;;;;;14.77;9.95;;;;;;;;;;5064993;28;20016;-67
2022/03/20 03:50:22;;;;;;;12.20;9.93;;;;;;;;;;5057097;28;20120;-67
2022/03/20 03:52:48;;;;;;;13.60;9.90;;;;;;;;;;5064838;28;20025;-67
2022/03/20 03:55:13;;;;;;;13.85;9.40;;;;;;;;;;5061261;28;20089;-67
2022/03/20 03:57:43;;;;;;;13.52;9.77;;;;;;;;;;5064515;28;20048;-67
2022/03/20 04:00:12;;;;;;;13.25;10.05;;;;;;;;;;5059347;28;20089;-67
2022/03/20 04:02:38;;;;;;;12.93;9.50;;;;;;;;;;5062856;28;20029;-67
2022/03/20 04:05:03;;;;;;;14.70;10.05;;;;;;;;;;5058859;28;20068;-67
2022/03/20 04:07:28;;;;;;;16.05;9.98;;;;;;;;;;5060160;28;20739;-68
2022/03/20 04:09:54;;;;;;;13.05;10.18;;;;;;;;;;5063833;28;20901;-68
2022/03/20 04:12:19;;;;;;;14.82;10.45;;;;;;;;;;5062209;28;20428;-67
2022/03/20 04:14:45;;;;;;;16.20;10.75;;;;;;;;;;5059580;28;20021;-67
2022/03/20 04:17:11;;;;;;;14.07;10.38;;;;;;;;;;5062566;28;20475;-67
2022/03/20 04:19:37;;;;;;;13.65;10.15;;;;;;;;;;5057488;28;20016;-67
2022/03/20 04:22:03;;;;;;;15.50;10.82;;;;;;;;;;5063987;28;20474;-67
2022/03/20 04:24:28;;;;;;;17.63;11.73;;;;;;;;;;5061976;28;20446;-68
2022/03/20 04:26:55;;;;;;;12.85;10.30;;;;;;;;;;5064628;28;20027;-67
2022/03/20 04:29:20;;;;;;;17.02;11.73;;;;;;;;;;5056604;28;20327;-68
2022/03/20 04:31:46;;;;;;;14.02;11.07;;;;;;;;;;5063906;28;20052;-68
2022/03/20 04:34:12;;;;;;;16.40;12.20;;;;;;;;;;5055679;28;20048;-68
2022/03/20 04:36:38;;;;;;;15.77;12.05;;;;;;;;;;5060487;28;20375;-67
2022/03/20 04:39:03;;;;;;;16.75;12.73;;;;;;;;;;5062615;28;20032;-67
2022/03/20 04:41:28;;;;;;;18.10;12.23;;;;;;;;;;5059492;28;20127;-68
2022/03/20 04:43:54;;;;;;;18.33;12.57;;;;;;;;;;5059806;28;20451;-67
2022/03/20 04:46:20;;;;;;;20.42;13.10;;;;;;;;;;5060836;28;20147;-66
2022/03/20 04:59:42;;;;;;;21.73;16.25;;;;;;;;;;5058952;28;20503;-68
2022/03/20 05:02:07;;;;;;;22.60;16.50;;;;;;;;;;5060688;28;20111;-68
2022/03/20 05:04:33;;;;;;;22.58;17.08;;;;;;;;;;5055962;28;20195;-67
2022/03/20 05:06:58;;;;;;;24.65;17.67;;;;;;;;;;5065152;28;20487;-68
2022/03/20 05:14:51;;;;;;;23.30;17.48;;;;;;;;;;5058384;28;20364;-67
2022/03/20 05:17:20;;;;;;;21.60;17.55;;;;;;;;;;5060114;28;20024;-68
2022/03/20 05:19:45;;;;;;;20.08;15.32;;;;;;;;;;5057977;28;20093;-68
2022/03/20 05:22:11;;;;;;;21.75;16.83;;;;;;;;;;5060994;28;20100;-69
2022/03/20 05:24:37;;;;;;;20.58;15.82;;;;;;;;;;5058760;28;20473;-69
2022/03/20 05:27:03;;;;;;;20.70;15.85;;;;;;;;;;5061978;28;20032;-68
2022/03/20 05:29:28;;;;;;;23.73;15.70;;;;;;;;;;5055571;28;20028;-68
2022/03/20 05:31:53;;;;;;;21.45;15.43;;;;;;;;;;5062009;28;20029;-67
2022/03/20 05:34:19;;;;;;;18.83;14.73;;;;;;;;;;5057038;28;20024;-68
2022/03/20 05:36:45;;;;;;;21.73;15.18;;;;;;;;;;5060064;28;20054;-68
2022/03/20 05:39:10;;;;;;;20.92;15.18;;;;;;;;;;5061155;28;20025;-68
2022/03/20 05:41:48;;;;;;;22.92;14.48;;;;;;;;;;5061832;28;20423;-67
2022/03/20 05:44:16;;;;;;;20.33;14.13;;;;;;;;;;5057631;28;20028;-68
2022/03/20 05:46:51;;;;;;;20.70;14.77;;;;;;;;;;5055878;28;20032;-67
2022/03/20 05:49:17;;;;;;;20.17;14.05;;;;;;;;;;5054448;28;20035;-69
2022/03/20 05:51:43;;;;;;;18.77;14.75;;;;;;;;;;5056561;28;20384;-67
2022/03/20 05:54:08;;;;;;;19.48;14.32;;;;;;;;;;5061521;28;20048;-68
2022/03/20 05:59:19;;;;;;;17.10;13.77;;;;;;;;;;5044468;28;20043;-68
2022/03/20 06:01:44;;;;;;;24.65;14.20;;;;;;;;;;5023994;28;20036;-68
2022/03/20 06:04:10;;;;;;;17.98;13.50;;;;;;;;;;5041926;28;20033;-68
2022/03/20 06:06:36;;;;;;;19.25;14.27;;;;;;;;;;5036003;28;20048;-68
2022/03/20 06:09:01;;;;;;;20.90;15.00;;;;;;;;;;5041737;28;20025;-68
2022/03/20 06:11:27;;;;;;;20.00;14.85;;;;;;;;;;5040397;28;20092;-67
2022/03/20 06:13:53;;;;;;;20.10;14.32;;;;;;;;;;5038671;28;20047;-67
2022/03/20 06:16:21;;;;;;;17.63;14.27;;;;;;;;;;5039440;28;20036;-68
2022/03/20 06:18:47;;;;;;;20.42;14.43;;;;;;;;;;5053233;28;20107;-68
2022/03/20 06:21:12;;;;;;;21.63;14.60;;;;;;;;;;5057296;28;20040;-68
2022/03/20 06:23:38;;;;;;;18.08;13.93;;;;;;;;;;5058416;28;20469;-68
2022/03/20 06:26:04;;;;;;;21.30;15.50;;;;;;;;;;5061036;28;20048;-68
2022/03/20 06:28:29;;;;;;;18.40;14.23;;;;;;;;;;5054895;28;20043;-68
2022/03/20 06:30:54;;;;;;;19.95;14.63;;;;;;;;;;5060429;28;20537;-68
2022/03/20 06:33:20;;;;;;;20.48;14.15;;;;;;;;;;5060610;28;20070;-68
2022/03/20 06:35:46;;;;;;;21.65;15.52;;;;;;;;;;5055527;28;20094;-67
2022/03/20 06:38:12;;;;;;;22.17;15.13;;;;;;;;;;5061479;28;20097;-67
2022/03/20 06:40:37;;;;;;;23.17;15.05;;;;;;;;;;5058917;28;20090;-67
2022/03/20 06:43:03;;;;;;;20.80;14.98;;;;;;;;;;5058960;28;20121;-68
2022/03/20 06:45:28;;;;;;;20.52;15.23;;;;;;;;;;5058320;28;20111;-68
2022/03/20 06:47:54;;;;;;;18.33;14.60;;;;;;;;;;5061836;28;20221;-68
2022/03/20 06:50:21;;;;;;;22.08;15.68;;;;;;;;;;5055825;28;20471;-68
2022/03/20 06:52:46;;;;;;;20.10;14.95;;;;;;;;;;5058308;28;20030;-69
2022/03/20 06:55:13;;;;;;;19.50;15.43;;;;;;;;;;5058754;28;20021;-67
2022/03/20 06:57:42;;;;;;;20.00;14.80;;;;;;;;;;5058711;28;20028;-68
2022/03/20 07:00:08;;;;;;;20.63;15.35;;;;;;;;;;5060400;28;20041;-67
2022/03/20 07:02:34;;;;;;;19.20;15.20;;;;;;;;;;5062486;28;20024;-68
2022/03/20 07:05:00;;;;;;;19.45;15.23;;;;;;;;;;5060805;28;20055;-68
2022/03/20 07:07:26;;;;;;;20.52;15.82;;;;;;;;;;5060983;28;20497;-68
2022/03/20 07:09:51;;;;;;;20.98;15.68;;;;;;;;;;5061671;28;20020;-68
2022/03/20 07:12:17;;;;;;;25.75;16.30;;;;;;;;;;5065465;28;20047;-68
2022/03/20 07:14:42;;;;;;;23.40;15.38;;;;;;;;;;5060335;28;20844;-67
2022/03/20 07:17:09;;;;;;;23.08;16.83;;;;;;;;;;5063983;28;20096;-69
2022/03/20 07:19:38;;;;;;;25.88;16.05;;;;;;;;;;5062285;28;20008;-67
2022/03/20 07:22:05;;;;;;;21.40;16.20;;;;;;;;;;5040663;28;20104;-69
2022/03/20 07:24:30;;;;;;;22.55;15.77;;;;;;;;;;5042470;28;20123;-67
2022/03/20 07:29:40;;;;;;;23.52;16.15;;;;;;;;;;5040375;28;20032;-65
2022/03/20 07:32:06;;;;;;;23.90;16.90;;;;;;;;;;5043393;28;20247;-67
2022/03/20 07:34:36;;;;;;;20.80;15.75;;;;;;;;;;5040627;28;20021;-68
2022/03/20 07:37:03;;;;;;;21.50;16.85;;;;;;;;;;5046813;28;20069;-68
2022/03/20 07:39:29;;;;;;;22.35;16.20;;;;;;;;;;5062285;28;20023;-68
2022/03/20 07:41:55;;;;;;;21.33;16.83;;;;;;;;;;5060097;28;20016;-70
2022/03/20 07:44:22;;;;;;;26.17;16.90;;;;;;;;;;5061005;28;20019;-68
2022/03/20 07:46:48;;;;;;;25.45;17.52;;;;;;;;;;5059882;28;20296;-68
2022/03/20 07:49:13;;;;;;;21.58;16.27;;;;;;;;;;5061411;28;20027;-68
2022/03/20 07:51:39;;;;;;;24.45;16.67;;;;;;;;;;5055500;28;20052;-68
2022/03/20 07:54:04;;;;;;;22.23;16.73;;;;;;;;;;5062757;28;20013;-68
2022/03/20 07:56:34;;;;;;;21.05;16.65;;;;;;;;;;5061315;28;20040;-68
2022/03/20 07:58:59;;;;;;;20.67;16.48;;;;;;;;;;5059040;28;20173;-68
2022/03/20 08:01:25;;;;;;;22.42;16.88;;;;;;;;;;5065382;28;20101;-67
2022/03/20 08:03:50;;;;;;;20.83;16.60;;;;;;;;;;5061445;28;20127;-68
2022/03/20 08:06:16;;;;;;;23.52;17.02;;;;;;;;;;5058102;28;20063;-68
2022/03/20 08:08:42;;;;;;;25.63;16.65;;;;;;;;;;5061829;28;20048;-68
2022/03/20 08:11:08;;;;;;;24.92;18.00;;;;;;;;;;5062507;28;20103;-69
2022/03/20 08:13:33;;;;;;;22.15;17.65;;;;;;;;;;5057643;28;20115;-66
2022/03/20 08:16:00;;;;;;;23.92;17.75;;;;;;;;;;5058797;28;20032;-67
2022/03/20 08:18:25;;;;;;;23.52;17.90;;;;;;;;;;5058852;28;20032;-68
2022/03/20 08:20:50;;;;;;;23.52;17.27;;;;;;;;;;5057529;28;20025;-67
2022/03/20 08:23:16;;;;;;;24.00;17.67;;;;;;;;;;5045061;28;20606;-67
2022/03/20 08:25:42;;;;;;;21.67;17.38;;;;;;;;;;5040884;28;20029;-67
2022/03/20 08:28:09;;;;;;;21.88;17.45;;;;;;;;;;5038996;28;20017;-67
2022/03/20 08:30:38;;;;;;;21.02;17.13;;;;;;;;;;5040001;28;20100;-65
2022/03/20 08:33:03;;;;;;;22.45;16.80;;;;;;;;;;5032855;28;20135;-68
2022/03/20 08:35:30;;;;;;;27.75;18.15;;;;;;;;;;5038208;28;20055;-67
2022/03/20 08:37:55;;;;;;;21.88;18.02;;;;;;;;;;5039587;28;20033;-66
2022/03/20 08:40:22;;;;;;;24.05;17.67;;;;;;;;;;5041235;28;20025;-68
2022/03/20 08:42:48;;;;;;;22.40;17.58;;;;;;;;;;5040685;28;20063;-67
2022/03/20 08:45:14;;;;;;;22.88;17.58;;;;;;;;;;5040018;28;20017;-68
2022/03/20 08:47:39;;;;;;;23.13;18.55;;;;;;;;;;5038659;28;20130;-67
2022/03/20 08:50:06;;;;;;;25.52;18.23;;;;;;;;;;5039557;28;20035;-69
2022/03/20 08:52:32;;;;;;;22.05;18.40;;;;;;;;;;5020534;28;20013;-67
2022/03/20 08:54:59;;;;;;;25.33;17.70;;;;;;;;;;5041065;28;20032;-67
2022/03/20 08:57:27;;;;;;;23.27;17.65;;;;;;;;;;5040292;28;20091;-68
2022/03/20 08:59:54;;;;;;;26.23;18.65;;;;;;;;;;5037013;28;20108;-68
2022/03/20 09:02:19;;;;;;;22.90;18.25;;;;;;;;;;5039613;28;20017;-67
2022/03/20 09:04:48;;;;;;;20.67;17.85;;;;;;;;;;5040212;28;20043;-67
2022/03/20 09:07:13;;;;;;;25.65;19.50;;;;;;;;;;5036689;28;20526;-67
2022/03/20 09:09:38;;;;;;;24.10;18.55;;;;;;;;;;5045205;28;20048;-67
2022/03/20 09:12:04;;;;;;;27.08;19.08;;;;;;;;;;5043415;28;20456;-68
2022/03/20 09:14:29;;;;;;;22.27;18.42;;;;;;;;;;5060171;28;20020;-68
2022/03/20 09:19:38;;;;;;;23.33;18.88;;;;;;;;;;5045754;28;20098;-68
2022/03/20 09:22:10;;;;;;;24.95;19.73;;;;;;;;;;5019646;28;20028;-67
2022/03/20 09:24:36;;;;;;;25.60;19.63;;;;;;;;;;5040680;28;20028;-66
2022/03/20 09:27:02;;;;;;;22.38;17.98;;;;;;;;;;5024202;28;20479;-67
2022/03/20 09:29:28;;;;;;;26.48;19.13;;;;;;;;;;5037205;28;20112;-68
2022/03/20 09:31:53;;;;;;;21.98;17.67;;;;;;;;;;5041004;28;20443;-68
2022/03/20 09:34:18;;;;;;;25.08;20.02;;;;;;;;;;5042412;28;20134;-69
2022/03/20 09:36:43;;;;;;;23.08;18.58;;;;;;;;;;5034142;28;20468;-68
2022/03/20 09:39:09;;;;;;;24.95;19.38;;;;;;;;;;5024361;28;20029;-68
2022/03/20 09:41:38;;;;;;;23.00;18.48;;;;;;;;;;5041590;28;20093;-68
2022/03/20 09:44:04;;;;;;;26.58;20.08;;;;;;;;;;5037273;28;20452;-68
2022/03/20 09:46:30;;;;;;;30.17;19.63;;;;;;;;;;5041302;28;20032;-69
2022/03/20 09:48:56;;;;;;;25.42;19.70;;;;;;;;;;5040391;28;20205;-69
2022/03/20 09:51:21;;;;;;;23.33;18.48;;;;;;;;;;5034299;28;20470;-67
2022/03/20 09:53:46;;;;;;;25.02;20.02;;;;;;;;;;5039488;28;20025;-68
2022/03/20 09:56:12;;;;;;;26.75;19.80;;;;;;;;;;5040347;28;20036;-67
2022/03/20 09:58:38;;;;;;;25.95;19.48;;;;;;;;;;5040344;28;20025;-67
2022/03/20 10:01:03;;;;;;;25.25;19.98;;;;;;;;;;5021615;28;20053;-68
2022/03/20 10:03:29;;;;;;;27.10;19.55;;;;;;;;;;5040198;28;20384;-68
2022/03/20 10:06:02;;;;;;;24.45;19.88;;;;;;;;;;5052285;28;20124;-68
2022/03/20 10:08:28;;;;;;;24.23;19.50;;;;;;;;;;5060800;28;20024;-70
2022/03/20 10:11:10;;;;;;;24.23;18.83;;;;;;;;;;5055884;28;20336;-68
2022/03/20 10:13:36;;;;;;;26.23;19.90;;;;;;;;;;5059231;28;20461;-68
2022/03/20 10:16:15;;;;;;;23.80;19.52;;;;;;;;;;5057159;28;20531;-68
2022/03/20 10:18:41;;;;;;;24.63;19.63;;;;;;;;;;5060146;28;20021;-68
2022/03/20 10:21:09;;;;;;;24.67;19.92;;;;;;;;;;5035456;28;20494;-68
2022/03/20 10:23:36;;;;;;;26.58;19.48;;;;;;;;;;5061671;28;20044;-66
2022/03/20 10:26:08;;;;;;;27.73;19.88;;;;;;;;;;5059493;28;20344;-69
2022/03/20 10:28:45;;;;;;;25.98;20.17;;;;;;;;;;5056851;28;20024;-68
2022/03/20 10:31:11;;;;;;;24.40;20.65;;;;;;;;;;5059288;28;20441;-68
2022/03/20 10:33:40;;;;;;;29.42;21.02;;;;;;;;;;5063766;28;20024;-67
2022/03/20 10:36:15;;;;;;;25.48;20.25;;;;;;;;;;5055672;28;20056;-68
2022/03/20 10:38:42;;;;;;;24.55;20.10;;;;;;;;;;5063727;28;20366;-68
2022/03/20 10:41:20;;;;;;;28.13;21.05;;;;;;;;;;5059575;28;20044;-68
2022/03/20 10:43:46;;;;;;;27.45;20.33;;;;;;;;;;5057562;28;20032;-68
2022/03/20 10:46:25;;;;;;;30.48;21.05;;;;;;;;;;5064814;28;20386;-68
2022/03/20 10:48:52;;;;;;;26.98;20.23;;;;;;;;;;5059754;28;20031;-67
2022/03/20 10:51:39;;;;;;;24.38;20.30;;;;;;;;;;5059783;28;20485;-66
2022/03/20 10:54:04;;;;;;;27.38;21.50;;;;;;;;;;5060053;28;20405;-68
2022/03/20 10:56:30;;;;;;;27.40;21.45;;;;;;;;;;5063975;28;20055;-68
2022/03/20 10:58:55;;;;;;;28.60;22.52;;;;;;;;;;5057679;28;20114;-68
2022/03/20 11:01:32;;;;;;;34.53;22.50;;;;;;;;;;5063806;28;20040;-68
2022/03/20 11:03:59;;;;;;;24.17;21.58;;;;;;;;;;5060458;28;20495;-68
2022/03/20 11:06:25;;;;;;;27.15;22.67;;;;;;;;;;5059579;28;20082;-68
2022/03/20 11:08:51;;;;;;;27.08;21.85;;;;;;;;;;5060036;28;20032;-68
2022/03/20 11:11:17;;;;;;;30.88;23.75;;;;;;;;;;5045946;28;20024;-68
2022/03/20 11:13:46;;;;;;;27.35;23.38;;;;;;;;;;5062392;28;20142;-68
2022/03/20 11:16:12;;;;;;;27.05;23.45;;;;;;;;;;5062548;28;20092;-67
2022/03/20 11:18:38;;;;;;;29.05;23.10;;;;;;;;;;5070832;28;20056;-68
2022/03/20 11:21:04;;;;;;;28.75;22.98;;;;;;;;;;5069085;28;20381;-68
2022/03/20 11:23:30;;;;;;;27.52;22.85;;;;;;;;;;5064112;28;20506;-69
2022/03/20 11:25:56;;;;;;;29.60;24.42;;;;;;;;;;5060947;28;20570;-68
2022/03/20 11:28:23;;;;;;;28.33;23.35;;;;;;;;;;5063335;28;20020;-68
2022/03/20 11:30:49;;;;;;;31.02;24.25;;;;;;;;;;5063500;28;20103;-68
2022/03/20 11:33:15;;;;;;;30.92;24.30;;;;;;;;;;5060594;28;20491;-68
2022/03/20 11:35:40;;;;;;;31.00;24.75;;;;;;;;;;5056815;28;20097;-67
2022/03/20 11:38:14;;;;;;;31.13;25.60;;;;;;;;;;5038023;28;20033;-68
2022/03/20 11:40:43;;;;;;;32.35;25.77;;;;;;;;;;5041281;28;20051;-68
2022/03/20 11:43:11;;;;;;;29.77;24.70;;;;;;;;;;5038389;28;20320;-68
2022/03/20 11:45:37;;;;;;;31.88;24.75;;;;;;;;;;5042085;28;20495;-68
2022/03/20 11:48:12;;;;;;;29.73;25.58;;;;;;;;;;5050726;28;20020;-67
2022/03/20 11:50:41;;;;;;;29.52;24.60;;;;;;;;;;5058755;28;20029;-68
2022/03/20 11:53:06;;;;;;;30.70;23.77;;;;;;;;;;5060643;28;20335;-68
2022/03/20 11:55:42;;;;;;;30.45;23.75;;;;;;;;;;5062762;28;20052;-68
2022/03/20 11:58:10;;;;;;;29.23;25.00;;;;;;;;;;5058295;28;20026;-68
2022/03/20 12:00:39;;;;;;;28.45;24.33;;;;;;;;;;5061360;28;20048;-68
2022/03/20 12:03:13;;;;;;;30.05;25.95;;;;;;;;;;5059221;28;20074;-67
2022/03/20 12:05:41;;;;;;;30.50;25.70;;;;;;;;;;5057998;28;20036;-69
2022/03/20 12:08:31;;;;;;;30.48;25.77;;;;;;;;;;5059376;28;20021;-68
2022/03/20 12:11:16;;;;;;;30.33;26.55;;;;;;;;;;5060656;28;20487;-68
2022/03/20 12:13:58;;;;;;;33.88;27.33;;;;;;;;;;5060796;28;20066;-67
2022/03/20 12:16:42;;;;;;;30.67;26.35;;;;;;;;;;5061407;28;20032;-69
2022/03/20 12:19:09;;;;;;;29.98;25.30;;;;;;;;;;5060278;28;20066;-67
2022/03/20 12:22:03;;;;;;;34.13;27.00;;;;;;;;;;5044111;28;20404;-69
2022/03/20 12:24:34;;;;;;;31.95;26.27;;;;;;;;;;5052790;28;20028;-67
2022/03/20 12:27:18;;;;;;;30.17;26.50;;;;;;;;;;5059879;28;20432;-68
2022/03/20 12:29:43;;;;;;;34.47;27.08;;;;;;;;;;5061654;28;20147;-67
2022/03/20 12:32:15;;;;;;;32.83;27.10;;;;;;;;;;5056452;28;20610;-67
2022/03/20 12:34:44;;;;;;;31.92;26.98;;;;;;;;;;5062198;28;20433;-67
2022/03/20 12:37:28;;;;;;;34.65;28.42;;;;;;;;;;5055036;28;20508;-68
2022/03/20 12:40:04;;;;;;;32.90;27.27;;;;;;;;;;5062293;28;20089;-67
2022/03/20 12:42:33;;;;;;;33.35;27.80;;;;;;;;;;5061266;28;20107;-68
2022/03/20 12:44:59;;;;;;;36.08;28.00;;;;;;;;;;5057951;28;20025;-68
2022/03/20 12:47:26;;;;;;;33.42;28.70;;;;;;;;;;5060388;28;20494;-68
2022/03/20 12:49:55;;;;;;;32.92;28.63;;;;;;;;;;5061172;28;20107;-67
2022/03/20 12:52:23;;;;;;;35.38;27.75;;;;;;;;;;5040702;28;20044;-67
2022/03/20 12:54:56;;;;;;;33.78;28.45;;;;;;;;;;5060638;28;20488;-67
2022/03/20 12:57:40;;;;;;;32.97;28.92;;;;;;;;;;5049942;28;20499;-67
2022/03/20 13:00:13;;;;;;;33.53;27.95;;;;;;;;;;5040190;28;20045;-68
2022/03/20 13:02:58;;;;;;;32.38;28.33;;;;;;;;;;5042965;28;20025;-68
2022/03/20 13:05:28;;;;;;;33.35;28.27;;;;;;;;;;5044303;28;20449;-66
2022/03/20 13:08:12;;;;;;;35.90;29.38;;;;;;;;;;5023212;28;20112;-67
2022/03/20 13:10:38;;;;;;;33.25;28.45;;;;;;;;;;5040757;28;20106;-68
2022/03/20 13:13:05;;;;;;;33.88;28.83;;;;;;;;;;5037602;28;20045;-68
2022/03/20 13:15:34;;;;;;;31.98;26.80;;;;;;;;;;5040459;28;20124;-67
2022/03/20 13:18:00;;;;;;;34.25;28.15;;;;;;;;;;5042263;28;20032;-67
2022/03/20 13:20:27;;;;;;;33.88;28.45;;;;;;;;;;5040427;28;20029;-67
2022/03/20 13:22:54;;;;;;;33.45;27.35;;;;;;;;;;5038974;28;20055;-68
2022/03/20 13:25:22;;;;;;;37.33;28.42;;;;;;;;;;5039579;28;20087;-68
2022/03/20 13:27:48;;;;;;;32.28;28.33;;;;;;;;;;5039836;28;20788;-67
2022/03/20 13:30:16;;;;;;;35.70;28.25;;;;;;;;;;5039339;28;20097;-68
2022/03/20 13:32:54;;;;;;;32.58;28.42;;;;;;;;;;5040547;28;20395;-67
2022/03/20 13:35:19;;;;;;;35.00;28.15;;;;;;;;;;5037205;28;20090;-69
2022/03/20 13:37:46;;;;;;;34.55;29.13;;;;;;;;;;5036285;28;20017;-67
2022/03/20 13:40:12;;;;;;;34.92;29.50;;;;;;;;;;5039475;28;20033;-68
2022/03/20 13:42:40;;;;;;;37.00;29.25;;;;;;;;;;5023466;28;20119;-67
2022/03/20 13:45:06;;;;;;;35.25;28.63;;;;;;;;;;5038464;28;20021;-68
2022/03/20 13:47:32;;;;;;;32.90;28.02;;;;;;;;;;5040511;28;20176;-67
2022/03/20 13:49:59;;;;;;;33.42;28.77;;;;;;;;;;5041958;28;20059;-67
2022/03/20 13:52:31;;;;;;;34.92;29.58;;;;;;;;;;5034614;28;20091;-67
2022/03/20 13:55:04;;;;;;;34.03;30.10;;;;;;;;;;5038902;28;20090;-66
2022/03/20 13:57:30;;;;;;;37.45;29.67;;;;;;;;;;5041504;28;20212;-68
2022/03/20 14:00:07;;;;;;;36.60;30.83;;;;;;;;;;5039901;28;20075;-68
2022/03/20 14:02:40;;;;;;;38.30;30.65;;;;;;;;;;5041253;28;20104;-67
2022/03/20 14:05:10;;;;;;;36.63;30.88;;;;;;;;;;5038564;28;20036;-67
2022/03/20 14:07:35;;;;;;;34.42;30.48;;;;;;;;;;5019589;28;20041;-67
2022/03/20 14:10:15;;;;;;;37.00;33.00;;;;;;;;;;5038993;28;20108;-69
2022/03/20 14:12:40;;;;;;;36.95;31.13;;;;;;;;;;5039519;28;20491;-67
2022/03/20 14:15:09;;;;;;;36.50;31.73;;;;;;;;;;5035981;28;20025;-67
2022/03/20 14:17:55;;;;;;;37.83;31.98;;;;;;;;;;5058329;28;20487;-68
2022/03/20 14:20:20;;;;;;;38.50;32.58;;;;;;;;;;5053773;28;20533;-67
2022/03/20 14:22:46;;;;;;;37.58;32.92;;;;;;;;;;5038973;28;20120;-67
2022/03/20 14:25:28;;;;;;;41.67;33.22;;;;;;;;;;5037327;28;20063;-68
2022/03/20 14:27:58;;;;;;;37.07;32.97;;;;;;;;;;5032665;28;20028;-67
2022/03/20 14:41:25;;;;;;;38.50;33.05;;;;;;;;;;5034234;28;20640;-66
2022/03/20 14:44:15;;;;;;;36.90;32.78;;;;;;;;;;5037520;28;20097;-67
2022/03/20 14:46:41;;;;;;;37.58;32.30;;;;;;;;;;5053317;28;20207;-66
2022/03/20 14:49:08;;;;;;;37.55;32.17;;;;;;;;;;5056074;28;20332;-68
2022/03/20 14:51:34;;;;;;;37.22;33.10;;;;;;;;;;5037521;28;20339;-67
2022/03/20 14:53:59;;;;;;;38.22;33.97;;;;;;;;;;5056775;28;20032;-68
2022/03/20 14:56:25;;;;;;;37.55;33.13;;;;;;;;;;5056292;28;20386;-69
2022/03/20 14:58:50;;;;;;;38.20;32.67;;;;;;;;;;5057408;28;20098;-68
2022/03/20 15:01:19;;;;;;;36.08;32.20;;;;;;;;;;5056414;28;20124;-68
2022/03/20 15:03:45;;;;;;;37.03;32.95;;;;;;;;;;5059381;28;20514;-69
2022/03/20 15:06:10;;;;;;;39.53;34.08;;;;;;;;;;5054118;28;20295;-67